createdAt,value
2023-10-29T00:02:24.600Z,1.10
2023-10-29T00:04:52.573Z,2.38
2023-10-29T00:07:20.168Z,1.13
2023-10-29T00:09:47.659Z,1.17
2023-10-29T00:12:15.567Z,1.60
2023-10-29T00:14:43.125Z,1.60
2023-10-29T00:17:10.715Z,1.60
2023-10-29T00:19:38.253Z,2.20
2023-10-29T00:22:06.022Z,1.52
2023-10-29T00:24:33.568Z,1.73
2023-10-29T00:27:01.153Z,2.00
2023-10-29T00:29:28.705Z,1.52
2023-10-29T00:31:56.286Z,1.15
2023-10-29T00:34:23.736Z,1.60
2023-10-29T00:36:51.339Z,1.67
2023-10-29T00:39:19.056Z,1.45
2023-10-29T00:41:46.634Z,1.63
2023-10-29T00:44:14.240Z,1.42
2023-10-29T00:46:43.193Z,1.42
2023-10-29T00:49:11.073Z,1.35
2023-10-29T00:51:38.733Z,1.85
2023-10-29T00:54:07.582Z,1.73
2023-10-29T00:56:35.364Z,1.20
2023-10-29T00:59:03.506Z,1.33
2023-10-29T01:01:32.242Z,1.73
2023-10-29T01:04:00.849Z,1.52
2023-10-29T01:06:29.359Z,1.60
2023-10-29T01:08:57.202Z,1.90
2023-10-29T01:11:24.861Z,1.58
2023-10-29T01:13:52.452Z,1.45
2023-10-29T01:16:19.969Z,1.40
2023-10-29T01:18:48.472Z,1.30
2023-10-29T01:21:17.457Z,1.70
2023-10-29T01:23:45.081Z,1.75
2023-10-29T01:26:12.744Z,1.80
2023-10-29T01:28:41.479Z,1.90
2023-10-29T01:31:09.071Z,2.28
2023-10-29T01:33:36.780Z,2.65
2023-10-29T01:36:05.092Z,2.63
2023-10-29T01:38:33.825Z,3.10
2023-10-29T01:41:01.927Z,3.17
2023-10-29T01:43:29.408Z,3.58
2023-10-29T01:45:57.046Z,4.30
2023-10-29T01:48:25.998Z,4.35
2023-10-29T01:50:53.687Z,4.75
2023-10-29T01:53:21.210Z,4.75
2023-10-29T01:55:48.770Z,4.47
2023-10-29T01:58:16.318Z,4.80
2023-10-29T02:00:43.938Z,4.05
2023-10-29T02:03:11.510Z,4.47
2023-10-29T02:05:39.948Z,4.25
2023-10-29T02:08:07.474Z,4.20
2023-10-29T02:10:35.112Z,4.00
2023-10-29T02:13:02.585Z,4.10
2023-10-29T02:15:30.142Z,3.80
2023-10-29T02:17:57.696Z,3.90
2023-10-29T02:20:25.364Z,3.40
2023-10-29T02:22:52.822Z,3.55
2023-10-29T02:25:20.468Z,2.92
2023-10-29T02:27:51.275Z,2.75
2023-10-29T02:30:19.058Z,3.15
2023-10-29T02:32:46.971Z,2.50
2023-10-29T02:35:15.549Z,2.30
2023-10-29T02:37:43.053Z,2.42
2023-10-29T02:40:10.979Z,2.10
2023-10-29T02:42:38.418Z,2.40
2023-10-29T02:45:06.352Z,2.15
2023-10-29T02:47:33.936Z,1.90
2023-10-29T02:50:01.524Z,1.90
2023-10-29T02:52:29.074Z,1.45
2023-10-29T02:54:57.869Z,1.83
2023-10-29T02:57:25.505Z,1.80
2023-10-29T02:59:53.093Z,1.50
2023-10-29T03:02:20.700Z,1.88
2023-10-29T03:04:48.531Z,1.75
2023-10-29T03:07:16.249Z,1.92
2023-10-29T03:09:43.754Z,1.50
2023-10-29T03:12:11.279Z,1.52
2023-10-29T03:14:38.851Z,1.40
2023-10-29T03:17:06.391Z,1.60
2023-10-29T03:19:34.083Z,1.20
2023-10-29T03:22:03.139Z,1.73
2023-10-29T03:24:30.713Z,1.58
2023-10-29T03:26:58.277Z,1.85
2023-10-29T03:29:25.908Z,1.63
2023-10-29T03:31:53.472Z,2.15
2023-10-29T03:34:21.081Z,1.55
2023-10-29T03:36:48.666Z,1.88
2023-10-29T03:39:17.608Z,1.63
2023-10-29T03:41:45.148Z,1.45
2023-10-29T03:44:12.713Z,1.63
2023-10-29T03:46:40.284Z,1.38
2023-10-29T03:49:07.882Z,1.77
2023-10-29T03:51:36.063Z,1.90
2023-10-29T03:54:04.434Z,1.75
2023-10-29T03:56:31.972Z,1.50
2023-10-29T03:58:59.971Z,1.65
2023-10-29T04:01:28.063Z,1.60
2023-10-29T04:03:55.722Z,1.40
2023-10-29T04:06:23.264Z,1.58
2023-10-29T04:08:51.205Z,1.90
2023-10-29T04:11:18.805Z,1.55
2023-10-29T04:13:46.482Z,2.03
2023-10-29T04:16:14.272Z,1.85
2023-10-29T04:18:42.074Z,1.25
2023-10-29T04:21:09.604Z,1.92
2023-10-29T04:23:38.014Z,1.27
2023-10-29T04:26:05.622Z,1.50
2023-10-29T04:28:33.170Z,1.30
2023-10-29T04:31:01.540Z,1.55
2023-10-29T04:33:29.597Z,1.45
2023-10-29T04:35:57.194Z,1.40
2023-10-29T04:38:24.842Z,1.60
2023-10-29T04:40:53.107Z,1.35
2023-10-29T04:43:20.662Z,1.40
2023-10-29T04:45:48.208Z,1.50
2023-10-29T04:48:17.645Z,1.40
2023-10-29T04:50:45.293Z,1.30
2023-10-29T04:53:13.234Z,1.00
2023-10-29T04:55:40.809Z,1.25
2023-10-29T04:58:08.324Z,1.13
2023-10-29T05:00:35.921Z,1.30
2023-10-29T05:03:03.674Z,1.33
2023-10-29T05:05:32.164Z,1.60
2023-10-29T05:08:00.116Z,1.10
2023-10-29T05:10:29.660Z,1.20
2023-10-29T05:12:57.957Z,1.20
2023-10-29T05:15:26.135Z,1.20
2023-10-29T05:17:53.826Z,1.10
2023-10-29T05:20:21.602Z,1.52
2023-10-29T05:22:49.196Z,1.30
2023-10-29T05:25:16.882Z,1.20
2023-10-29T05:27:52.734Z,0.90
2023-10-29T05:30:20.870Z,1.20
2023-10-29T05:32:48.780Z,1.33
2023-10-29T05:35:16.571Z,1.10
2023-10-29T05:37:44.102Z,0.88
2023-10-29T05:40:12.185Z,1.00
2023-10-29T05:42:39.718Z,1.20
2023-10-29T05:45:08.322Z,1.42
2023-10-29T05:47:35.956Z,1.08
2023-10-29T05:50:05.512Z,1.35
2023-10-29T05:52:33.783Z,1.00
2023-10-29T05:55:04.942Z,1.10
2023-10-29T05:57:32.564Z,1.00
2023-10-29T06:00:00.440Z,0.95
2023-10-29T06:02:28.281Z,1.40
2023-10-29T06:04:55.833Z,0.98
2023-10-29T06:07:23.441Z,0.88
2023-10-29T06:09:50.895Z,0.95
2023-10-29T06:12:19.562Z,1.02
2023-10-29T06:14:48.366Z,1.08
2023-10-29T06:17:26.619Z,1.10
2023-10-29T06:19:54.910Z,1.05
2023-10-29T06:22:22.592Z,0.95
2023-10-29T06:24:50.294Z,1.00
2023-10-29T06:27:17.889Z,1.10
2023-10-29T06:29:45.688Z,1.30
2023-10-29T06:32:13.269Z,1.63
2023-10-29T06:34:40.859Z,1.20
2023-10-29T06:37:08.359Z,0.82
2023-10-29T06:39:35.877Z,0.95
2023-10-29T06:42:03.433Z,0.90
2023-10-29T06:44:31.387Z,0.93
2023-10-29T06:46:58.838Z,1.15
2023-10-29T06:49:26.741Z,0.95
2023-10-29T06:51:55.081Z,0.90
2023-10-29T06:54:22.680Z,0.80
2023-10-29T06:56:50.307Z,0.68
2023-10-29T06:59:19.757Z,1.00
2023-10-29T07:01:48.520Z,0.90
2023-10-29T07:04:16.536Z,1.05
2023-10-29T07:06:45.356Z,0.90
2023-10-29T07:09:13.025Z,0.75
2023-10-29T07:11:41.671Z,0.98
2023-10-29T07:14:09.788Z,1.00
2023-10-29T07:16:39.002Z,0.68
2023-10-29T07:19:06.670Z,0.60
2023-10-29T07:21:34.302Z,0.80
2023-10-29T07:24:04.854Z,1.02
2023-10-29T07:26:36.224Z,0.70
2023-10-29T07:29:04.114Z,0.80
2023-10-29T07:31:32.213Z,0.75
2023-10-29T07:33:59.824Z,0.70
2023-10-29T07:36:27.382Z,0.73
2023-10-29T07:38:55.176Z,0.70
2023-10-29T07:41:22.990Z,0.90
2023-10-29T07:43:50.705Z,0.80
2023-10-29T07:46:18.234Z,0.63
2023-10-29T07:48:45.763Z,0.80
2023-10-29T07:51:13.345Z,0.90
2023-10-29T07:53:40.919Z,0.80
2023-10-29T07:56:12.296Z,0.98
2023-10-29T07:58:40.196Z,1.10
2023-10-29T08:01:12.229Z,0.90
2023-10-29T08:03:44.444Z,0.90
2023-10-29T08:06:13.575Z,0.77
2023-10-29T08:08:41.664Z,1.02
2023-10-29T08:11:19.549Z,0.80
2023-10-29T08:13:47.393Z,0.88
2023-10-29T08:16:15.254Z,0.68
2023-10-29T08:18:42.927Z,1.20
2023-10-29T08:21:10.614Z,1.20
2023-10-29T08:23:38.307Z,1.25
2023-10-29T08:26:05.836Z,0.85
2023-10-29T08:28:33.443Z,1.10
2023-10-29T08:31:00.958Z,1.00
2023-10-29T08:33:28.725Z,1.00
2023-10-29T08:35:56.339Z,1.20
2023-10-29T08:38:23.918Z,0.90
2023-10-29T08:40:51.542Z,1.30
2023-10-29T08:43:19.138Z,1.33
2023-10-29T08:45:46.754Z,1.45
2023-10-29T08:48:14.588Z,1.17
2023-10-29T08:50:42.145Z,1.20
2023-10-29T08:53:09.747Z,1.05
2023-10-29T08:55:37.299Z,1.25
2023-10-29T08:58:04.849Z,1.50
2023-10-29T09:00:45.508Z,1.20
2023-10-29T09:03:16.182Z,0.82
2023-10-29T09:05:44.814Z,1.17
2023-10-29T09:08:12.921Z,1.48
2023-10-29T09:10:44.142Z,0.95
2023-10-29T09:13:12.351Z,0.90
2023-10-29T09:15:40.078Z,1.20
2023-10-29T09:18:07.973Z,1.13
2023-10-29T09:20:39.644Z,1.10
2023-10-29T09:23:07.401Z,0.85
2023-10-29T09:25:35.202Z,0.80
2023-10-29T09:28:06.345Z,0.80
2023-10-29T09:30:34.074Z,0.90
2023-10-29T09:33:01.645Z,1.00
2023-10-29T09:35:29.254Z,0.90
2023-10-29T09:37:56.709Z,0.93
2023-10-29T09:40:24.451Z,0.98
2023-10-29T09:42:57.177Z,0.88
2023-10-29T09:45:27.248Z,0.80
2023-10-29T09:47:56.073Z,0.80
2023-10-29T09:50:23.683Z,0.70
2023-10-29T09:52:52.701Z,0.63
2023-10-29T09:55:24.339Z,0.88
2023-10-29T09:57:52.347Z,0.90
2023-10-29T10:00:20.194Z,0.57
2023-10-29T10:02:53.040Z,0.70
2023-10-29T10:05:25.232Z,0.60
2023-10-29T10:07:53.546Z,0.82
2023-10-29T10:10:22.322Z,1.05
2023-10-29T10:12:51.851Z,0.70
2023-10-29T10:15:20.609Z,0.98
2023-10-29T10:17:50.386Z,0.70
2023-10-29T10:20:22.012Z,0.80
2023-10-29T10:23:16.823Z,0.90
2023-10-29T10:25:44.440Z,0.47
2023-10-29T10:28:11.932Z,0.65
2023-10-29T10:30:40.319Z,0.63
2023-10-29T10:33:16.239Z,0.90
2023-10-29T10:35:52.992Z,0.68
2023-10-29T10:38:21.595Z,0.60
2023-10-29T10:40:58.802Z,0.85
2023-10-29T10:43:28.119Z,0.60
2023-10-29T10:45:56.419Z,0.70
2023-10-29T10:48:24.390Z,0.43
2023-10-29T10:50:54.532Z,0.60
2023-10-29T10:53:25.366Z,0.73
2023-10-29T10:56:02.982Z,0.70
2023-10-29T10:58:34.296Z,0.80
2023-10-29T11:01:04.090Z,0.70
2023-10-29T11:03:34.466Z,0.65
2023-10-29T11:06:02.914Z,0.80
2023-10-29T11:08:30.478Z,0.93
2023-10-29T11:10:59.910Z,0.70
2023-10-29T11:13:28.280Z,0.73
2023-10-29T11:15:56.941Z,0.70
2023-10-29T11:18:33.610Z,1.00
2023-10-29T11:21:06.647Z,0.75
2023-10-29T11:23:35.946Z,0.85
2023-10-29T11:26:24.550Z,0.82
2023-10-29T11:28:54.969Z,0.98
2023-10-29T11:31:24.344Z,0.90
2023-10-29T11:33:57.785Z,0.98
2023-10-29T11:36:33.260Z,0.93
2023-10-29T11:39:16.463Z,1.35
2023-10-29T11:41:46.021Z,1.00
2023-10-29T11:44:19.842Z,1.20
2023-10-29T11:49:27.516Z,1.10
2023-10-29T11:51:55.845Z,1.42
2023-10-29T11:54:24.029Z,1.10
2023-10-29T11:56:52.713Z,1.20
2023-10-29T11:59:20.317Z,1.20
2023-10-29T12:01:47.873Z,1.00
2023-10-29T12:04:15.854Z,1.48
2023-10-29T12:06:45.569Z,0.98
2023-10-29T12:09:19.258Z,1.23
2023-10-29T12:11:55.327Z,1.65
2023-10-29T12:14:44.704Z,1.30
2023-10-29T12:17:14.100Z,1.38
2023-10-29T12:19:44.844Z,1.42
2023-10-29T12:22:15.171Z,1.08
2023-10-29T12:24:43.980Z,1.35
2023-10-29T12:27:11.746Z,1.40
2023-10-29T12:29:39.354Z,1.73
2023-10-29T12:32:15.444Z,1.50
2023-10-29T12:34:50.823Z,1.75
2023-10-29T12:37:26.463Z,1.45
2023-10-29T12:40:01.338Z,1.67
2023-10-29T12:42:54.484Z,1.50
2023-10-29T12:45:30.022Z,1.50
2023-10-29T12:48:14.079Z,1.48
2023-10-29T12:53:13.806Z,1.60
2023-10-29T12:55:45.834Z,1.63
2023-10-29T12:58:13.386Z,1.42
2023-10-29T13:00:40.963Z,1.35
2023-10-29T13:03:08.835Z,1.45
2023-10-29T13:05:36.367Z,1.60
2023-10-29T13:08:06.133Z,1.60
2023-10-29T13:10:34.330Z,1.63
2023-10-29T13:13:01.902Z,1.80
2023-10-29T13:15:30.923Z,1.50
2023-10-29T13:17:58.451Z,2.10
2023-10-29T13:20:28.086Z,1.75
2023-10-29T13:22:55.990Z,1.40
2023-10-29T13:25:23.908Z,1.25
2023-10-29T13:27:51.577Z,1.20
2023-10-29T13:30:19.676Z,1.50
2023-10-29T13:32:47.897Z,1.50
2023-10-29T13:35:17.908Z,1.80
2023-10-29T13:37:45.590Z,1.52
2023-10-29T13:40:13.208Z,1.83
2023-10-29T13:42:40.834Z,1.80
2023-10-29T13:45:08.826Z,1.50
2023-10-29T13:47:36.403Z,1.58
2023-10-29T13:50:04.283Z,1.40
2023-10-29T13:52:31.827Z,1.52
2023-10-29T13:54:59.279Z,1.15
2023-10-29T13:57:26.935Z,1.67
2023-10-29T13:59:54.438Z,1.50
2023-10-29T14:02:22.083Z,1.55
2023-10-29T14:04:49.919Z,1.60
2023-10-29T14:07:17.735Z,1.67
2023-10-29T14:09:45.451Z,1.80
2023-10-29T14:12:13.022Z,1.80
2023-10-29T14:14:40.551Z,1.50
2023-10-29T14:17:08.131Z,1.75
2023-10-29T14:19:36.660Z,1.77
2023-10-29T14:22:04.570Z,1.77
2023-10-29T14:24:31.975Z,1.40
2023-10-29T14:27:00.285Z,1.27
2023-10-29T14:29:28.256Z,1.90
2023-10-29T14:31:56.047Z,1.33
2023-10-29T14:34:23.641Z,1.52
2023-10-29T14:36:51.231Z,1.63
2023-10-29T14:39:18.810Z,1.50
2023-10-29T14:41:47.145Z,1.48
2023-10-29T14:44:16.094Z,1.73
2023-10-29T14:46:43.735Z,2.20
2023-10-29T14:49:11.946Z,2.13
2023-10-29T14:51:40.655Z,2.10
2023-10-29T14:54:08.534Z,1.70
2023-10-29T14:56:36.089Z,1.60
2023-10-29T14:59:05.095Z,1.77
2023-10-29T15:01:32.940Z,1.50
2023-10-29T15:04:00.538Z,1.52
2023-10-29T15:06:28.162Z,1.98
2023-10-29T15:08:55.650Z,1.98
2023-10-29T15:11:36.190Z,1.92
2023-10-29T15:14:06.634Z,1.98
2023-10-29T15:16:34.860Z,2.22
2023-10-29T15:19:05.532Z,1.60
2023-10-29T15:21:34.396Z,2.20
2023-10-29T15:24:02.379Z,2.33
2023-10-29T15:26:30.066Z,2.67
2023-10-29T15:28:57.550Z,2.63
2023-10-29T15:31:25.259Z,2.78
2023-10-29T15:33:53.311Z,2.92
2023-10-29T15:36:20.940Z,2.42
2023-10-29T15:38:48.490Z,2.85
2023-10-29T15:41:17.065Z,2.85
2023-10-29T15:43:44.553Z,2.88
2023-10-29T15:46:12.168Z,2.70
2023-10-29T15:48:39.764Z,2.58
2023-10-29T15:51:09.826Z,3.17
2023-10-29T15:53:38.075Z,2.50
2023-10-29T15:56:07.547Z,2.67
2023-10-29T15:58:35.110Z,2.22
2023-10-29T16:01:02.951Z,2.53
2023-10-29T16:03:31.206Z,2.60
2023-10-29T16:06:07.569Z,2.88
2023-10-29T16:08:39.725Z,2.90
2023-10-29T16:11:08.898Z,2.42
2023-10-29T16:13:37.829Z,2.53
2023-10-29T16:16:06.046Z,2.65
2023-10-29T16:18:33.736Z,2.58
2023-10-29T16:21:01.308Z,2.70
2023-10-29T16:23:28.858Z,2.50
2023-10-29T16:25:56.428Z,2.42
2023-10-29T16:28:23.907Z,2.60
2023-10-29T16:30:51.493Z,2.88
2023-10-29T16:33:19.118Z,2.80
2023-10-29T16:35:46.779Z,2.67
2023-10-29T16:38:14.301Z,2.88
2023-10-29T16:40:44.715Z,3.20
2023-10-29T16:43:12.337Z,2.38
2023-10-29T16:45:40.019Z,2.42
2023-10-29T16:48:08.183Z,2.53
2023-10-29T16:50:52.363Z,2.38
2023-10-29T16:53:27.483Z,2.80
2023-10-29T16:55:54.977Z,2.80
2023-10-29T16:58:22.826Z,3.20
2023-10-29T17:00:50.321Z,2.42
2023-10-29T17:03:18.048Z,3.28
2023-10-29T17:05:45.721Z,2.75
2023-10-29T17:08:14.046Z,3.00
2023-10-29T17:10:41.573Z,2.85
2023-10-29T17:13:09.222Z,2.70
2023-10-29T17:15:37.058Z,3.63
2023-10-29T17:18:04.809Z,3.28
2023-10-29T17:20:32.309Z,3.00
2023-10-29T17:22:59.860Z,3.13
2023-10-29T17:25:27.389Z,2.97
2023-10-29T17:27:55.511Z,2.85
2023-10-29T17:30:23.697Z,3.42
2023-10-29T17:32:58.832Z,3.75
2023-10-29T17:35:31.191Z,4.15
2023-10-29T17:37:58.868Z,3.17
2023-10-29T17:40:27.015Z,3.80
2023-10-29T17:42:54.614Z,3.85
2023-10-29T17:45:22.320Z,3.22
2023-10-29T17:47:50.527Z,3.03
2023-10-29T17:50:18.026Z,2.90
2023-10-29T17:52:45.585Z,3.45
2023-10-29T17:55:13.139Z,3.38
2023-10-29T17:57:40.755Z,3.42
2023-10-29T18:00:09.164Z,3.60
2023-10-29T18:02:40.546Z,3.30
2023-10-29T18:05:11.994Z,3.35
2023-10-29T18:07:40.968Z,3.67
2023-10-29T18:10:08.813Z,3.63
2023-10-29T18:12:36.368Z,3.17
2023-10-29T18:15:04.000Z,3.60
2023-10-29T18:17:33.215Z,3.72
2023-10-29T18:20:00.830Z,3.17
2023-10-29T18:22:28.364Z,4.13
2023-10-29T18:24:56.011Z,4.00
2023-10-29T18:27:24.513Z,3.80
2023-10-29T18:29:52.160Z,3.50
2023-10-29T18:32:19.864Z,3.40
2023-10-29T18:34:47.697Z,4.10
2023-10-29T18:37:15.535Z,3.47
2023-10-29T18:39:42.956Z,3.60
2023-10-29T18:42:10.749Z,3.50
2023-10-29T18:44:38.211Z,3.30
2023-10-29T18:47:09.002Z,3.50
2023-10-29T18:49:36.613Z,3.08
2023-10-29T18:52:04.715Z,2.85
2023-10-29T18:54:32.370Z,3.38
2023-10-29T18:57:00.523Z,3.53
2023-10-29T18:59:28.309Z,3.47
2023-10-29T19:01:55.823Z,3.58
2023-10-29T19:04:23.547Z,3.45
2023-10-29T19:06:51.053Z,3.80
2023-10-29T19:09:19.234Z,3.58
2023-10-29T19:11:46.745Z,3.40
2023-10-29T19:14:14.302Z,3.30
2023-10-29T19:16:41.764Z,3.97
2023-10-29T19:19:09.713Z,4.07
2023-10-29T19:21:37.277Z,4.10
2023-10-29T19:24:05.218Z,3.92
2023-10-29T19:26:32.786Z,3.83
2023-10-29T19:29:00.307Z,4.10
2023-10-29T19:31:28.195Z,4.18
2023-10-29T19:33:55.984Z,3.92
2023-10-29T19:36:23.935Z,3.63
2023-10-29T19:38:51.484Z,3.17
2023-10-29T19:41:19.179Z,3.22
2023-10-29T19:43:46.788Z,2.95
2023-10-29T19:46:14.276Z,3.83
2023-10-29T19:48:41.938Z,3.70
2023-10-29T19:51:09.751Z,3.40
2023-10-29T19:53:37.796Z,3.33
2023-10-29T19:56:09.472Z,3.10
2023-10-29T19:58:37.074Z,3.35
2023-10-29T20:01:09.516Z,3.08
2023-10-29T20:03:37.918Z,3.05
2023-10-29T20:06:09.656Z,3.65
2023-10-29T20:08:39.242Z,3.30
2023-10-29T20:11:09.651Z,3.42
2023-10-29T20:13:38.243Z,3.47
2023-10-29T20:16:09.937Z,3.10
2023-10-29T20:18:38.384Z,3.92
2023-10-29T20:21:12.193Z,3.88
2023-10-29T20:26:17.143Z,3.60
2023-10-29T20:28:45.711Z,3.38
2023-10-29T20:31:13.179Z,3.85
2023-10-29T20:33:40.944Z,9.43
2023-10-29T20:36:09.000Z,3.45
2023-10-29T20:38:36.576Z,3.50
2023-10-29T20:41:10.394Z,2.47
2023-10-29T20:43:38.811Z,4.25
2023-10-29T20:46:06.420Z,3.50
2023-10-29T20:48:34.099Z,3.10
2023-10-29T20:51:02.488Z,1.83
2023-10-29T20:53:30.524Z,1.45
2023-10-29T20:55:58.100Z,2.60
2023-10-29T20:58:25.586Z,3.00
2023-10-29T21:00:53.063Z,3.10
2023-10-29T21:03:20.845Z,3.53
2023-10-29T21:05:56.453Z,3.30
2023-10-29T21:08:24.156Z,3.40
2023-10-29T21:10:53.385Z,3.00
2023-10-29T21:13:20.902Z,3.60
2023-10-29T21:15:48.745Z,2.80
2023-10-29T21:18:16.400Z,3.55
2023-10-29T21:20:46.434Z,2.92
2023-10-29T21:23:14.052Z,2.67
2023-10-29T21:25:41.584Z,3.00
2023-10-29T21:28:09.251Z,4.35
2023-10-29T21:30:38.824Z,5.88
2023-10-29T21:33:06.541Z,3.92
2023-10-29T21:35:35.518Z,3.85
2023-10-29T21:38:03.163Z,3.60
2023-10-29T21:40:34.621Z,3.35
2023-10-29T21:43:02.396Z,2.85
2023-10-29T21:45:29.953Z,3.47
2023-10-29T21:47:57.591Z,3.05
2023-10-29T21:50:25.150Z,3.25
2023-10-29T21:52:52.740Z,3.50
2023-10-29T21:55:20.295Z,3.70
2023-10-29T21:57:47.917Z,2.88
2023-10-29T22:00:15.670Z,2.17
2023-10-29T22:02:43.361Z,2.95
2023-10-29T22:05:10.920Z,4.20
2023-10-29T22:07:38.465Z,3.35
2023-10-29T22:10:06.512Z,2.97
2023-10-29T22:12:34.060Z,3.10
2023-10-29T22:15:01.688Z,2.78
2023-10-29T22:17:29.282Z,1.88
2023-10-29T22:19:56.748Z,1.38
2023-10-29T22:22:24.244Z,1.50
2023-10-29T22:24:51.720Z,1.45
2023-10-29T22:27:19.804Z,1.50
2023-10-29T22:29:47.498Z,1.65
2023-10-29T22:32:15.952Z,1.23
2023-10-29T22:34:43.490Z,1.48
2023-10-29T22:37:11.367Z,1.23
2023-10-29T22:39:38.977Z,1.10
2023-10-29T22:42:08.021Z,1.13
2023-10-29T22:44:35.483Z,1.60
2023-10-29T22:47:03.176Z,2.33
2023-10-29T22:49:30.683Z,2.25
2023-10-29T22:51:58.320Z,1.50
2023-10-29T22:54:25.837Z,0.95
2023-10-29T22:56:53.433Z,1.00
2023-10-29T22:59:20.931Z,0.88
2023-10-29T23:01:48.439Z,1.08
2023-10-29T23:04:16.017Z,1.00
2023-10-29T23:06:43.702Z,1.20
2023-10-29T23:09:11.315Z,1.10
2023-10-29T23:11:38.968Z,1.27
2023-10-29T23:14:06.403Z,1.20
2023-10-29T23:16:34.058Z,1.10
2023-10-29T23:19:01.574Z,1.23
2023-10-29T23:21:29.124Z,1.35
2023-10-29T23:23:56.624Z,1.30
2023-10-29T23:26:24.226Z,1.30
2023-10-29T23:28:51.747Z,1.33
2023-10-29T23:31:19.331Z,1.67
2023-10-29T23:33:46.878Z,1.88
2023-10-29T23:36:14.541Z,2.20
2023-10-29T23:38:42.020Z,2.30
2023-10-29T23:41:09.640Z,2.53
2023-10-29T23:43:37.096Z,2.90
2023-10-29T23:46:05.406Z,2.70
2023-10-29T23:48:33.035Z,2.63
2023-10-29T23:51:00.544Z,2.90
2023-10-29T23:53:28.092Z,2.50
2023-10-29T23:55:56.195Z,2.63
2023-10-29T23:58:23.639Z,2.72
